sensor_id;sensor_type;location;lat;lon;timestamp;temperature;humidity
47520;DHT22;33252;48.122;11.538;2023-07-29T00:01:32;16.60;99.90
47520;DHT22;33252;48.122;11.538;2023-07-29T00:03:58;16.50;99.90
47520;DHT22;33252;48.122;11.538;2023-07-29T00:06:24;16.50;99.90
47520;DHT22;33252;48.122;11.538;2023-07-29T00:08:49;16.50;99.90
47520;DHT22;33252;48.122;11.538;2023-07-29T00:11:15;16.40;99.90
47520;DHT22;33252;48.122;11.538;2023-07-29T00:13:40;16.50;99.90
47520;DHT22;33252;48.122;11.538;2023-07-29T00:16:06;16.50;99.90
47520;DHT22;33252;48.122;11.538;2023-07-29T00:18:32;16.50;99.90
47520;DHT22;33252;48.122;11.538;2023-07-29T00:20:58;16.50;99.90
47520;DHT22;33252;48.122;11.538;2023-07-29T00:23:23;16.50;99.90
47520;DHT22;33252;48.122;11.538;2023-07-29T00:25:49;16.40;99.90
47520;DHT22;33252;48.122;11.538;2023-07-29T00:28:15;16.40;99.90
47520;DHT22;33252;48.122;11.538;2023-07-29T00:30:41;16.30;99.90
47520;DHT22;33252;48.122;11.538;2023-07-29T00:33:06;16.30;99.90
47520;DHT22;33252;48.122;11.538;2023-07-29T00:35:32;16.40;99.90
47520;DHT22;33252;48.122;11.538;2023-07-29T00:37:58;16.30;99.90
47520;DHT22;33252;48.122;11.538;2023-07-29T00:40:23;16.30;99.90
47520;DHT22;33252;48.122;11.538;2023-07-29T00:42:49;16.20;99.90
47520;DHT22;33252;48.122;11.538;2023-07-29T00:45:16;16.20;99.90
47520;DHT22;33252;48.122;11.538;2023-07-29T00:47:42;16.20;99.90
47520;DHT22;33252;48.122;11.538;2023-07-29T00:50:11;16.20;99.90
47520;DHT22;33252;48.122;11.538;2023-07-29T00:52:37;16.30;99.90
47520;DHT22;33252;48.122;11.538;2023-07-29T00:55:03;16.30;99.90
47520;DHT22;33252;48.122;11.538;2023-07-29T00:57:30;16.40;99.90
47520;DHT22;33252;48.122;11.538;2023-07-29T00:59:56;16.30;99.90
47520;DHT22;33252;48.122;11.538;2023-07-29T01:02:21;16.30;99.90
47520;DHT22;33252;48.122;11.538;2023-07-29T01:04:58;16.20;99.90
47520;DHT22;33252;48.122;11.538;2023-07-29T01:10:28;16.20;99.90
47520;DHT22;33252;48.122;11.538;2023-07-29T01:17:59;16.00;99.90
47520;DHT22;33252;48.122;11.538;2023-07-29T01:20:38;15.90;99.90
47520;DHT22;33252;48.122;11.538;2023-07-29T01:23:05;15.90;99.90
47520;DHT22;33252;48.122;11.538;2023-07-29T01:25:31;15.90;99.90
47520;DHT22;33252;48.122;11.538;2023-07-29T01:27:56;15.90;99.90
47520;DHT22;33252;48.122;11.538;2023-07-29T01:30:29;16.00;99.90
47520;DHT22;33252;48.122;11.538;2023-07-29T01:33:00;16.00;99.90
47520;DHT22;33252;48.122;11.538;2023-07-29T01:38:33;16.00;99.90
47520;DHT22;33252;48.122;11.538;2023-07-29T01:41:07;16.10;99.90
47520;DHT22;33252;48.122;11.538;2023-07-29T01:43:33;16.00;99.90
47520;DHT22;33252;48.122;11.538;2023-07-29T01:46:00;16.00;99.90
47520;DHT22;33252;48.122;11.538;2023-07-29T01:48:26;16.10;99.90
47520;DHT22;33252;48.122;11.538;2023-07-29T01:50:53;16.20;99.90
47520;DHT22;33252;48.122;11.538;2023-07-29T01:53:18;16.20;99.90
47520;DHT22;33252;48.122;11.538;2023-07-29T01:55:44;16.00;99.90
47520;DHT22;33252;48.122;11.538;2023-07-29T01:58:11;16.10;99.90
47520;DHT22;33252;48.122;11.538;2023-07-29T02:00:36;16.10;99.90
47520;DHT22;33252;48.122;11.538;2023-07-29T02:03:02;16.00;99.90
47520;DHT22;33252;48.122;11.538;2023-07-29T02:05:28;16.00;99.90
47520;DHT22;33252;48.122;11.538;2023-07-29T02:07:53;15.90;99.90
47520;DHT22;33252;48.122;11.538;2023-07-29T02:10:19;15.80;99.90
47520;DHT22;33252;48.122;11.538;2023-07-29T02:12:45;15.70;99.90
47520;DHT22;33252;48.122;11.538;2023-07-29T02:15:10;15.60;99.90
47520;DHT22;33252;48.122;11.538;2023-07-29T02:17:36;15.60;99.90
47520;DHT22;33252;48.122;11.538;2023-07-29T02:20:03;15.60;99.90
47520;DHT22;33252;48.122;11.538;2023-07-29T02:22:29;15.60;99.90
47520;DHT22;33252;48.122;11.538;2023-07-29T02:24:55;15.60;99.90
47520;DHT22;33252;48.122;11.538;2023-07-29T02:27:20;15.60;99.90
47520;DHT22;33252;48.122;11.538;2023-07-29T02:29:46;15.60;99.90
47520;DHT22;33252;48.122;11.538;2023-07-29T02:32:12;15.60;99.90
47520;DHT22;33252;48.122;11.538;2023-07-29T02:34:38;15.50;99.90
47520;DHT22;33252;48.122;11.538;2023-07-29T02:37:04;15.50;99.90
47520;DHT22;33252;48.122;11.538;2023-07-29T02:39:30;15.50;99.90
47520;DHT22;33252;48.122;11.538;2023-07-29T02:41:56;15.50;99.90
47520;DHT22;33252;48.122;11.538;2023-07-29T02:44:23;15.50;99.90
47520;DHT22;33252;48.122;11.538;2023-07-29T02:46:49;15.40;99.90
47520;DHT22;33252;48.122;11.538;2023-07-29T02:49:15;15.50;99.90
47520;DHT22;33252;48.122;11.538;2023-07-29T02:51:41;15.50;99.90
47520;DHT22;33252;48.122;11.538;2023-07-29T02:54:06;15.60;99.90
47520;DHT22;33252;48.122;11.538;2023-07-29T02:56:32;15.70;99.90
47520;DHT22;33252;48.122;11.538;2023-07-29T02:58:57;15.70;99.90
47520;DHT22;33252;48.122;11.538;2023-07-29T03:01:24;15.80;99.90
47520;DHT22;33252;48.122;11.538;2023-07-29T03:03:52;15.80;99.90
47520;DHT22;33252;48.122;11.538;2023-07-29T03:06:18;15.80;99.90
47520;DHT22;33252;48.122;11.538;2023-07-29T03:08:44;15.90;99.90
47520;DHT22;33252;48.122;11.538;2023-07-29T03:11:14;15.80;99.90
47520;DHT22;33252;48.122;11.538;2023-07-29T03:13:40;15.90;99.90
47520;DHT22;33252;48.122;11.538;2023-07-29T03:16:07;15.90;99.90
47520;DHT22;33252;48.122;11.538;2023-07-29T03:18:33;15.80;99.90
47520;DHT22;33252;48.122;11.538;2023-07-29T03:20:59;15.90;99.90
47520;DHT22;33252;48.122;11.538;2023-07-29T03:23:24;15.90;99.90
47520;DHT22;33252;48.122;11.538;2023-07-29T03:25:50;15.90;99.90
47520;DHT22;33252;48.122;11.538;2023-07-29T03:28:25;15.90;99.90
47520;DHT22;33252;48.122;11.538;2023-07-29T03:30:51;15.90;99.90
47520;DHT22;33252;48.122;11.538;2023-07-29T03:33:17;16.00;99.90
47520;DHT22;33252;48.122;11.538;2023-07-29T03:35:42;16.00;99.90
47520;DHT22;33252;48.122;11.538;2023-07-29T03:38:10;16.00;99.90
47520;DHT22;33252;48.122;11.538;2023-07-29T03:40:37;16.00;99.90
47520;DHT22;33252;48.122;11.538;2023-07-29T03:43:03;16.10;99.90
47520;DHT22;33252;48.122;11.538;2023-07-29T03:45:28;16.10;99.90
47520;DHT22;33252;48.122;11.538;2023-07-29T03:47:54;16.10;99.90
47520;DHT22;33252;48.122;11.538;2023-07-29T03:50:19;16.10;99.90
47520;DHT22;33252;48.122;11.538;2023-07-29T03:52:45;16.20;99.90
47520;DHT22;33252;48.122;11.538;2023-07-29T03:55:11;16.20;99.90
47520;DHT22;33252;48.122;11.538;2023-07-29T03:57:36;16.20;99.90
47520;DHT22;33252;48.122;11.538;2023-07-29T04:00:02;16.30;99.90
47520;DHT22;33252;48.122;11.538;2023-07-29T04:02:28;16.20;99.90
47520;DHT22;33252;48.122;11.538;2023-07-29T04:04:54;16.20;99.90
47520;DHT22;33252;48.122;11.538;2023-07-29T04:07:20;16.20;99.90
47520;DHT22;33252;48.122;11.538;2023-07-29T04:09:46;16.20;99.90
47520;DHT22;33252;48.122;11.538;2023-07-29T04:12:11;16.20;99.90
47520;DHT22;33252;48.122;11.538;2023-07-29T04:14:37;16.20;99.90
47520;DHT22;33252;48.122;11.538;2023-07-29T04:17:03;16.20;99.90
47520;DHT22;33252;48.122;11.538;2023-07-29T04:19:29;16.20;99.90
47520;DHT22;33252;48.122;11.538;2023-07-29T04:21:54;16.20;99.90
47520;DHT22;33252;48.122;11.538;2023-07-29T04:24:20;16.20;99.90
47520;DHT22;33252;48.122;11.538;2023-07-29T04:26:48;16.10;99.90
47520;DHT22;33252;48.122;11.538;2023-07-29T04:29:14;16.20;99.90
47520;DHT22;33252;48.122;11.538;2023-07-29T04:31:40;16.20;99.90
47520;DHT22;33252;48.122;11.538;2023-07-29T04:34:06;16.20;99.90
47520;DHT22;33252;48.122;11.538;2023-07-29T04:36:31;16.20;99.90
47520;DHT22;33252;48.122;11.538;2023-07-29T04:38:58;16.20;99.90
47520;DHT22;33252;48.122;11.538;2023-07-29T04:41:23;16.20;99.90
47520;DHT22;33252;48.122;11.538;2023-07-29T04:43:49;16.20;99.90
47520;DHT22;33252;48.122;11.538;2023-07-29T04:46:17;16.20;99.90
47520;DHT22;33252;48.122;11.538;2023-07-29T04:48:43;16.30;99.90
47520;DHT22;33252;48.122;11.538;2023-07-29T04:51:09;16.40;99.90
47520;DHT22;33252;48.122;11.538;2023-07-29T04:53:34;16.50;99.90
47520;DHT22;33252;48.122;11.538;2023-07-29T04:56:02;16.50;99.90
47520;DHT22;33252;48.122;11.538;2023-07-29T04:58:28;16.60;99.90
47520;DHT22;33252;48.122;11.538;2023-07-29T05:00:55;16.80;99.90
47520;DHT22;33252;48.122;11.538;2023-07-29T05:03:21;16.90;99.90
47520;DHT22;33252;48.122;11.538;2023-07-29T05:05:46;17.00;99.90
47520;DHT22;33252;48.122;11.538;2023-07-29T05:08:12;17.10;99.90
47520;DHT22;33252;48.122;11.538;2023-07-29T05:10:38;17.10;99.90
47520;DHT22;33252;48.122;11.538;2023-07-29T05:13:03;17.20;99.90
47520;DHT22;33252;48.122;11.538;2023-07-29T05:15:29;17.30;99.90
47520;DHT22;33252;48.122;11.538;2023-07-29T05:17:55;17.30;99.90
47520;DHT22;33252;48.122;11.538;2023-07-29T05:20:20;17.30;99.90
47520;DHT22;33252;48.122;11.538;2023-07-29T05:22:46;17.40;99.90
47520;DHT22;33252;48.122;11.538;2023-07-29T05:25:11;17.50;99.90
47520;DHT22;33252;48.122;11.538;2023-07-29T05:27:37;17.50;99.90
47520;DHT22;33252;48.122;11.538;2023-07-29T05:30:03;17.50;99.90
47520;DHT22;33252;48.122;11.538;2023-07-29T05:32:29;17.60;99.90
47520;DHT22;33252;48.122;11.538;2023-07-29T05:34:55;17.70;99.90
47520;DHT22;33252;48.122;11.538;2023-07-29T05:37:20;17.70;99.90
47520;DHT22;33252;48.122;11.538;2023-07-29T05:39:46;17.80;99.90
47520;DHT22;33252;48.122;11.538;2023-07-29T05:42:12;17.90;99.90
47520;DHT22;33252;48.122;11.538;2023-07-29T05:44:37;17.90;99.90
47520;DHT22;33252;48.122;11.538;2023-07-29T05:47:03;18.00;99.90
47520;DHT22;33252;48.122;11.538;2023-07-29T05:49:29;18.00;99.90
47520;DHT22;33252;48.122;11.538;2023-07-29T05:51:54;18.00;99.90
47520;DHT22;33252;48.122;11.538;2023-07-29T05:54:20;18.00;99.90
47520;DHT22;33252;48.122;11.538;2023-07-29T05:56:45;18.00;99.90
47520;DHT22;33252;48.122;11.538;2023-07-29T05:59:11;18.00;99.90
47520;DHT22;33252;48.122;11.538;2023-07-29T06:01:37;17.90;99.90
47520;DHT22;33252;48.122;11.538;2023-07-29T06:04:03;17.90;99.90
47520;DHT22;33252;48.122;11.538;2023-07-29T06:06:29;17.50;99.90
47520;DHT22;33252;48.122;11.538;2023-07-29T06:08:55;17.20;99.90
47520;DHT22;33252;48.122;11.538;2023-07-29T06:11:21;17.10;99.90
47520;DHT22;33252;48.122;11.538;2023-07-29T06:13:47;17.00;99.90
47520;DHT22;33252;48.122;11.538;2023-07-29T06:16:13;17.00;99.90
47520;DHT22;33252;48.122;11.538;2023-07-29T06:18:39;17.00;99.90
47520;DHT22;33252;48.122;11.538;2023-07-29T06:21:04;17.00;99.90
47520;DHT22;33252;48.122;11.538;2023-07-29T06:23:33;17.10;99.90
47520;DHT22;33252;48.122;11.538;2023-07-29T06:25:59;17.10;99.90
47520;DHT22;33252;48.122;11.538;2023-07-29T06:28:26;17.30;99.90
47520;DHT22;33252;48.122;11.538;2023-07-29T06:30:52;17.40;99.90
47520;DHT22;33252;48.122;11.538;2023-07-29T06:33:18;17.40;99.90
47520;DHT22;33252;48.122;11.538;2023-07-29T06:35:44;17.40;99.90
47520;DHT22;33252;48.122;11.538;2023-07-29T06:38:09;17.40;99.90
47520;DHT22;33252;48.122;11.538;2023-07-29T06:40:35;17.40;99.90
47520;DHT22;33252;48.122;11.538;2023-07-29T06:43:01;17.40;99.90
47520;DHT22;33252;48.122;11.538;2023-07-29T06:45:27;17.40;99.90
47520;DHT22;33252;48.122;11.538;2023-07-29T06:47:53;17.30;99.90
47520;DHT22;33252;48.122;11.538;2023-07-29T06:50:18;17.30;99.90
47520;DHT22;33252;48.122;11.538;2023-07-29T06:52:45;17.20;99.90
47520;DHT22;33252;48.122;11.538;2023-07-29T06:55:10;17.10;99.90
47520;DHT22;33252;48.122;11.538;2023-07-29T06:57:36;17.10;99.90
47520;DHT22;33252;48.122;11.538;2023-07-29T07:00:03;17.00;99.90
47520;DHT22;33252;48.122;11.538;2023-07-29T07:02:28;17.00;99.90
47520;DHT22;33252;48.122;11.538;2023-07-29T07:04:54;17.00;99.90
47520;DHT22;33252;48.122;11.538;2023-07-29T07:07:20;17.00;99.90
47520;DHT22;33252;48.122;11.538;2023-07-29T07:09:45;17.00;99.90
47520;DHT22;33252;48.122;11.538;2023-07-29T07:12:11;17.10;99.90
47520;DHT22;33252;48.122;11.538;2023-07-29T07:14:37;17.10;99.90
47520;DHT22;33252;48.122;11.538;2023-07-29T07:17:03;17.10;99.90
47520;DHT22;33252;48.122;11.538;2023-07-29T07:19:28;17.10;99.90
47520;DHT22;33252;48.122;11.538;2023-07-29T07:21:54;17.10;99.90
47520;DHT22;33252;48.122;11.538;2023-07-29T07:24:19;17.20;99.90
47520;DHT22;33252;48.122;11.538;2023-07-29T07:26:45;17.30;99.90
47520;DHT22;33252;48.122;11.538;2023-07-29T07:29:11;17.30;99.90
47520;DHT22;33252;48.122;11.538;2023-07-29T07:31:36;17.30;99.90
47520;DHT22;33252;48.122;11.538;2023-07-29T07:34:02;17.30;99.90
47520;DHT22;33252;48.122;11.538;2023-07-29T07:36:29;17.40;99.90
47520;DHT22;33252;48.122;11.538;2023-07-29T07:38:54;17.40;99.90
47520;DHT22;33252;48.122;11.538;2023-07-29T07:41:21;17.40;99.90
47520;DHT22;33252;48.122;11.538;2023-07-29T07:43:47;17.50;99.90
47520;DHT22;33252;48.122;11.538;2023-07-29T07:46:13;17.60;99.90
47520;DHT22;33252;48.122;11.538;2023-07-29T07:48:38;17.60;99.90
47520;DHT22;33252;48.122;11.538;2023-07-29T07:51:11;17.70;99.90
47520;DHT22;33252;48.122;11.538;2023-07-29T07:53:37;17.80;99.90
47520;DHT22;33252;48.122;11.538;2023-07-29T07:56:03;17.90;99.90
47520;DHT22;33252;48.122;11.538;2023-07-29T07:58:29;17.80;99.90
47520;DHT22;33252;48.122;11.538;2023-07-29T08:01:10;17.80;99.90
47520;DHT22;33252;48.122;11.538;2023-07-29T08:03:36;18.00;99.90
47520;DHT22;33252;48.122;11.538;2023-07-29T08:06:02;18.00;99.90
47520;DHT22;33252;48.122;11.538;2023-07-29T08:08:28;18.10;99.90
47520;DHT22;33252;48.122;11.538;2023-07-29T08:10:54;18.10;99.90
47520;DHT22;33252;48.122;11.538;2023-07-29T08:13:22;18.20;99.90
47520;DHT22;33252;48.122;11.538;2023-07-29T08:15:49;18.30;99.90
47520;DHT22;33252;48.122;11.538;2023-07-29T08:18:15;18.40;99.90
47520;DHT22;33252;48.122;11.538;2023-07-29T08:20:51;18.40;99.90
47520;DHT22;33252;48.122;11.538;2023-07-29T08:23:17;18.40;99.90
47520;DHT22;33252;48.122;11.538;2023-07-29T08:25:42;18.50;99.90
47520;DHT22;33252;48.122;11.538;2023-07-29T08:28:08;18.70;99.90
47520;DHT22;33252;48.122;11.538;2023-07-29T08:30:34;18.70;99.90
47520;DHT22;33252;48.122;11.538;2023-07-29T08:32:59;18.60;99.90
47520;DHT22;33252;48.122;11.538;2023-07-29T08:35:25;18.60;99.90
47520;DHT22;33252;48.122;11.538;2023-07-29T08:37:50;18.80;99.90
47520;DHT22;33252;48.122;11.538;2023-07-29T08:40:17;18.70;99.90
47520;DHT22;33252;48.122;11.538;2023-07-29T08:42:44;18.70;99.90
47520;DHT22;33252;48.122;11.538;2023-07-29T08:45:11;18.90;99.90
47520;DHT22;33252;48.122;11.538;2023-07-29T08:47:37;18.90;99.90
47520;DHT22;33252;48.122;11.538;2023-07-29T08:50:03;19.10;99.90
47520;DHT22;33252;48.122;11.538;2023-07-29T08:52:29;19.20;99.90
47520;DHT22;33252;48.122;11.538;2023-07-29T08:54:55;19.40;99.90
47520;DHT22;33252;48.122;11.538;2023-07-29T08:57:22;19.40;99.90
47520;DHT22;33252;48.122;11.538;2023-07-29T08:59:48;19.50;99.90
47520;DHT22;33252;48.122;11.538;2023-07-29T09:02:14;19.40;99.90
47520;DHT22;33252;48.122;11.538;2023-07-29T09:04:40;19.50;99.90
47520;DHT22;33252;48.122;11.538;2023-07-29T09:07:06;19.60;99.90
47520;DHT22;33252;48.122;11.538;2023-07-29T09:09:32;19.70;99.90
47520;DHT22;33252;48.122;11.538;2023-07-29T09:11:58;19.60;99.90
47520;DHT22;33252;48.122;11.538;2023-07-29T09:14:24;19.60;99.90
47520;DHT22;33252;48.122;11.538;2023-07-29T09:16:50;19.60;99.90
47520;DHT22;33252;48.122;11.538;2023-07-29T09:19:16;19.50;99.90
47520;DHT22;33252;48.122;11.538;2023-07-29T09:21:42;19.60;99.90
47520;DHT22;33252;48.122;11.538;2023-07-29T09:24:08;19.70;99.90
47520;DHT22;33252;48.122;11.538;2023-07-29T09:26:35;19.90;99.90
47520;DHT22;33252;48.122;11.538;2023-07-29T09:29:01;20.00;99.90
47520;DHT22;33252;48.122;11.538;2023-07-29T09:31:28;20.10;99.90
47520;DHT22;33252;48.122;11.538;2023-07-29T09:34:02;20.40;99.90
47520;DHT22;33252;48.122;11.538;2023-07-29T09:36:30;20.60;99.90
47520;DHT22;33252;48.122;11.538;2023-07-29T09:38:57;20.80;99.90
47520;DHT22;33252;48.122;11.538;2023-07-29T09:41:27;20.90;99.90
47520;DHT22;33252;48.122;11.538;2023-07-29T09:43:58;21.00;99.90
47520;DHT22;33252;48.122;11.538;2023-07-29T09:46:24;21.20;99.90
47520;DHT22;33252;48.122;11.538;2023-07-29T09:48:53;21.30;99.90
47520;DHT22;33252;48.122;11.538;2023-07-29T09:51:21;21.70;99.90
47520;DHT22;33252;48.122;11.538;2023-07-29T09:53:47;22.10;99.90
47520;DHT22;33252;48.122;11.538;2023-07-29T09:56:14;22.20;99.90
47520;DHT22;33252;48.122;11.538;2023-07-29T09:58:40;22.30;99.90
47520;DHT22;33252;48.122;11.538;2023-07-29T10:01:08;22.40;99.90
47520;DHT22;33252;48.122;11.538;2023-07-29T10:03:34;22.60;99.90
47520;DHT22;33252;48.122;11.538;2023-07-29T10:06:05;22.70;99.90
47520;DHT22;33252;48.122;11.538;2023-07-29T10:08:31;22.70;99.90
47520;DHT22;33252;48.122;11.538;2023-07-29T10:11:01;22.70;99.90
47520;DHT22;33252;48.122;11.538;2023-07-29T10:13:27;22.60;99.90
47520;DHT22;33252;48.122;11.538;2023-07-29T10:15:56;22.60;99.90
47520;DHT22;33252;48.122;11.538;2023-07-29T10:18:23;22.60;99.90
47520;DHT22;33252;48.122;11.538;2023-07-29T10:20:52;22.50;99.90
47520;DHT22;33252;48.122;11.538;2023-07-29T10:23:21;22.50;99.90
47520;DHT22;33252;48.122;11.538;2023-07-29T10:25:50;22.50;99.90
47520;DHT22;33252;48.122;11.538;2023-07-29T10:28:21;22.60;99.90
47520;DHT22;33252;48.122;11.538;2023-07-29T10:30:51;22.80;99.90
47520;DHT22;33252;48.122;11.538;2023-07-29T10:33:17;22.90;99.90
47520;DHT22;33252;48.122;11.538;2023-07-29T10:35:43;23.10;99.90
47520;DHT22;33252;48.122;11.538;2023-07-29T10:38:09;23.20;99.90
47520;DHT22;33252;48.122;11.538;2023-07-29T10:40:47;23.40;99.90
47520;DHT22;33252;48.122;11.538;2023-07-29T10:43:19;23.60;99.90
47520;DHT22;33252;48.122;11.538;2023-07-29T10:45:49;23.80;99.90
47520;DHT22;33252;48.122;11.538;2023-07-29T10:54:13;24.20;99.90
47520;DHT22;33252;48.122;11.538;2023-07-29T10:56:49;24.40;99.90
47520;DHT22;33252;48.122;11.538;2023-07-29T11:01:58;24.40;99.90
47520;DHT22;33252;48.122;11.538;2023-07-29T11:04:28;24.60;99.90
47520;DHT22;33252;48.122;11.538;2023-07-29T11:09:58;24.80;99.10
47520;DHT22;33252;48.122;11.538;2023-07-29T11:12:39;24.60;99.70
47520;DHT22;33252;48.122;11.538;2023-07-29T11:15:19;24.60;99.70
47520;DHT22;33252;48.122;11.538;2023-07-29T11:18:00;24.30;98.90
47520;DHT22;33252;48.122;11.538;2023-07-29T11:20:28;24.20;99.90
47520;DHT22;33252;48.122;11.538;2023-07-29T11:22:55;24.00;99.30
47520;DHT22;33252;48.122;11.538;2023-07-29T11:25:22;23.20;98.40
47520;DHT22;33252;48.122;11.538;2023-07-29T11:27:52;22.70;98.70
47520;DHT22;33252;48.122;11.538;2023-07-29T11:30:17;22.60;99.00
47520;DHT22;33252;48.122;11.538;2023-07-29T11:32:44;22.60;98.90
47520;DHT22;33252;48.122;11.538;2023-07-29T11:35:13;22.70;99.60
47520;DHT22;33252;48.122;11.538;2023-07-29T11:37:41;22.90;98.20
47520;DHT22;33252;48.122;11.538;2023-07-29T11:40:07;23.20;99.00
47520;DHT22;33252;48.122;11.538;2023-07-29T11:42:36;23.50;97.60
47520;DHT22;33252;48.122;11.538;2023-07-29T11:45:03;23.40;97.70
47520;DHT22;33252;48.122;11.538;2023-07-29T11:47:31;23.60;97.40
47520;DHT22;33252;48.122;11.538;2023-07-29T11:49:58;23.80;96.90
47520;DHT22;33252;48.122;11.538;2023-07-29T11:52:27;24.00;96.80
47520;DHT22;33252;48.122;11.538;2023-07-29T11:54:53;23.80;96.60
47520;DHT22;33252;48.122;11.538;2023-07-29T11:57:19;24.00;96.40
47520;DHT22;33252;48.122;11.538;2023-07-29T11:59:46;24.30;96.40
47520;DHT22;33252;48.122;11.538;2023-07-29T12:02:14;24.20;96.20
47520;DHT22;33252;48.122;11.538;2023-07-29T12:04:41;23.80;96.60
47520;DHT22;33252;48.122;11.538;2023-07-29T12:07:08;23.70;96.90
47520;DHT22;33252;48.122;11.538;2023-07-29T12:09:35;24.00;96.80
47520;DHT22;33252;48.122;11.538;2023-07-29T12:12:03;24.20;96.40
47520;DHT22;33252;48.122;11.538;2023-07-29T12:14:29;24.60;96.20
47520;DHT22;33252;48.122;11.538;2023-07-29T12:16:55;24.70;96.00
47520;DHT22;33252;48.122;11.538;2023-07-29T12:19:20;25.10;94.90
47520;DHT22;33252;48.122;11.538;2023-07-29T12:21:48;25.40;96.30
47520;DHT22;33252;48.122;11.538;2023-07-29T12:24:14;25.70;95.10
47520;DHT22;33252;48.122;11.538;2023-07-29T12:26:42;25.70;94.60
47520;DHT22;33252;48.122;11.538;2023-07-29T12:29:16;26.00;95.50
47520;DHT22;33252;48.122;11.538;2023-07-29T12:31:42;26.10;93.60
47520;DHT22;33252;48.122;11.538;2023-07-29T12:34:08;26.10;93.80
47520;DHT22;33252;48.122;11.538;2023-07-29T12:36:45;26.10;93.60
47520;DHT22;33252;48.122;11.538;2023-07-29T12:39:19;25.80;94.20
47520;DHT22;33252;48.122;11.538;2023-07-29T12:41:45;25.50;96.20
47520;DHT22;33252;48.122;11.538;2023-07-29T12:44:11;25.10;94.70
47520;DHT22;33252;48.122;11.538;2023-07-29T12:46:36;24.80;95.10
47520;DHT22;33252;48.122;11.538;2023-07-29T12:49:02;24.60;96.20
47520;DHT22;33252;48.122;11.538;2023-07-29T12:51:28;24.30;96.20
47520;DHT22;33252;48.122;11.538;2023-07-29T12:53:54;24.10;96.60
47520;DHT22;33252;48.122;11.538;2023-07-29T12:56:20;23.80;97.40
47520;DHT22;33252;48.122;11.538;2023-07-29T12:58:45;23.50;99.10
47520;DHT22;33252;48.122;11.538;2023-07-29T13:01:11;22.90;99.90
47520;DHT22;33252;48.122;11.538;2023-07-29T13:03:42;22.60;99.90
47520;DHT22;33252;48.122;11.538;2023-07-29T13:06:08;22.30;99.90
47520;DHT22;33252;48.122;11.538;2023-07-29T13:08:33;22.20;99.90
47520;DHT22;33252;48.122;11.538;2023-07-29T13:10:59;22.10;99.90
47520;DHT22;33252;48.122;11.538;2023-07-29T13:13:25;21.40;99.90
47520;DHT22;33252;48.122;11.538;2023-07-29T13:15:50;20.90;99.90
47520;DHT22;33252;48.122;11.538;2023-07-29T13:18:16;20.70;99.90
47520;DHT22;33252;48.122;11.538;2023-07-29T13:20:42;20.30;99.90
47520;DHT22;33252;48.122;11.538;2023-07-29T13:23:07;20.30;99.90
47520;DHT22;33252;48.122;11.538;2023-07-29T13:25:33;20.10;99.90
47520;DHT22;33252;48.122;11.538;2023-07-29T13:27:59;20.00;99.90
47520;DHT22;33252;48.122;11.538;2023-07-29T13:30:24;20.00;99.90
47520;DHT22;33252;48.122;11.538;2023-07-29T13:32:50;19.90;99.90
47520;DHT22;33252;48.122;11.538;2023-07-29T13:35:15;19.70;99.90
47520;DHT22;33252;48.122;11.538;2023-07-29T13:37:41;19.70;99.90
47520;DHT22;33252;48.122;11.538;2023-07-29T13:40:07;19.70;99.90
47520;DHT22;33252;48.122;11.538;2023-07-29T13:42:33;19.60;99.90
47520;DHT22;33252;48.122;11.538;2023-07-29T13:44:58;19.70;99.90
47520;DHT22;33252;48.122;11.538;2023-07-29T13:47:24;19.70;99.90
47520;DHT22;33252;48.122;11.538;2023-07-29T13:49:49;19.80;99.90
47520;DHT22;33252;48.122;11.538;2023-07-29T13:52:15;19.90;99.90
47520;DHT22;33252;48.122;11.538;2023-07-29T13:54:41;20.00;99.90
47520;DHT22;33252;48.122;11.538;2023-07-29T13:57:06;19.90;99.90
47520;DHT22;33252;48.122;11.538;2023-07-29T13:59:32;20.00;99.90
47520;DHT22;33252;48.122;11.538;2023-07-29T14:01:58;20.10;99.90
47520;DHT22;33252;48.122;11.538;2023-07-29T14:04:24;20.00;99.90
47520;DHT22;33252;48.122;11.538;2023-07-29T14:06:49;20.10;99.90
47520;DHT22;33252;48.122;11.538;2023-07-29T14:09:15;20.00;99.90
47520;DHT22;33252;48.122;11.538;2023-07-29T14:11:40;19.90;99.90
47520;DHT22;33252;48.122;11.538;2023-07-29T14:14:07;19.80;99.90
47520;DHT22;33252;48.122;11.538;2023-07-29T14:16:32;19.90;99.90
47520;DHT22;33252;48.122;11.538;2023-07-29T14:18:58;19.90;99.90
47520;DHT22;33252;48.122;11.538;2023-07-29T14:21:24;19.80;99.90
47520;DHT22;33252;48.122;11.538;2023-07-29T14:23:50;19.80;99.90
47520;DHT22;33252;48.122;11.538;2023-07-29T14:26:15;19.80;99.90
47520;DHT22;33252;48.122;11.538;2023-07-29T14:28:41;19.80;99.90
47520;DHT22;33252;48.122;11.538;2023-07-29T14:31:07;19.70;99.90
47520;DHT22;33252;48.122;11.538;2023-07-29T14:33:33;19.60;99.90
47520;DHT22;33252;48.122;11.538;2023-07-29T14:35:58;19.60;99.90
47520;DHT22;33252;48.122;11.538;2023-07-29T14:38:24;19.50;99.90
47520;DHT22;33252;48.122;11.538;2023-07-29T14:40:51;19.60;99.90
47520;DHT22;33252;48.122;11.538;2023-07-29T14:43:20;19.50;99.90
47520;DHT22;33252;48.122;11.538;2023-07-29T14:45:45;19.30;99.90
47520;DHT22;33252;48.122;11.538;2023-07-29T14:48:11;19.30;99.90
47520;DHT22;33252;48.122;11.538;2023-07-29T14:50:37;19.20;99.90
47520;DHT22;33252;48.122;11.538;2023-07-29T14:53:02;19.20;99.90
47520;DHT22;33252;48.122;11.538;2023-07-29T14:55:28;19.10;99.90
47520;DHT22;33252;48.122;11.538;2023-07-29T14:57:53;19.10;99.90
47520;DHT22;33252;48.122;11.538;2023-07-29T15:00:19;19.00;99.90
47520;DHT22;33252;48.122;11.538;2023-07-29T15:02:45;19.00;99.90
47520;DHT22;33252;48.122;11.538;2023-07-29T15:05:10;19.00;99.90
47520;DHT22;33252;48.122;11.538;2023-07-29T15:07:36;19.10;99.90
47520;DHT22;33252;48.122;11.538;2023-07-29T15:10:02;19.00;99.90
47520;DHT22;33252;48.122;11.538;2023-07-29T15:12:28;19.00;99.90
47520;DHT22;33252;48.122;11.538;2023-07-29T15:14:53;19.10;99.90
47520;DHT22;33252;48.122;11.538;2023-07-29T15:17:19;19.20;99.90
47520;DHT22;33252;48.122;11.538;2023-07-29T15:19:45;19.20;99.90
47520;DHT22;33252;48.122;11.538;2023-07-29T15:22:15;19.30;99.90
47520;DHT22;33252;48.122;11.538;2023-07-29T15:24:41;19.30;99.90
47520;DHT22;33252;48.122;11.538;2023-07-29T15:27:11;19.40;99.90
47520;DHT22;33252;48.122;11.538;2023-07-29T15:29:37;19.40;99.90
47520;DHT22;33252;48.122;11.538;2023-07-29T15:32:03;19.40;99.90
47520;DHT22;33252;48.122;11.538;2023-07-29T15:34:29;19.40;99.90